sensor_id;sensor_type;location;lat;lon;timestamp;P1;durP1;ratioP1;P2;durP2;ratioP2
9186;SDS011;7273;48.902;9.410;2023-02-15T00:01:55;3.15;;;1.85;;
9186;SDS011;7273;48.902;9.410;2023-02-15T00:04:22;3.58;;;1.90;;
9186;SDS011;7273;48.902;9.410;2023-02-15T00:06:49;6.20;;;2.50;;
9186;SDS011;7273;48.902;9.410;2023-02-15T00:09:15;1.95;;;1.05;;
9186;SDS011;7273;48.902;9.410;2023-02-15T00:11:41;6.75;;;1.90;;
9186;SDS011;7273;48.902;9.410;2023-02-15T00:14:24;3.08;;;1.40;;
9186;SDS011;7273;48.902;9.410;2023-02-15T00:16:51;4.63;;;2.27;;
9186;SDS011;7273;48.902;9.410;2023-02-15T00:19:18;2.85;;;1.35;;
9186;SDS011;7273;48.902;9.410;2023-02-15T00:21:45;0.98;;;0.93;;
9186;SDS011;7273;48.902;9.410;2023-02-15T00:24:12;2.00;;;1.50;;
9186;SDS011;7273;48.902;9.410;2023-02-15T00:26:40;1.25;;;1.15;;
9186;SDS011;7273;48.902;9.410;2023-02-15T00:29:06;11.05;;;2.17;;
9186;SDS011;7273;48.902;9.410;2023-02-15T00:31:33;3.00;;;1.45;;
9186;SDS011;7273;48.902;9.410;2023-02-15T00:34:06;0.75;;;0.60;;
9186;SDS011;7273;48.902;9.410;2023-02-15T00:39:00;2.97;;;1.77;;
9186;SDS011;7273;48.902;9.410;2023-02-15T00:41:25;3.42;;;1.67;;
9186;SDS011;7273;48.902;9.410;2023-02-15T00:43:51;2.65;;;1.15;;
9186;SDS011;7273;48.902;9.410;2023-02-15T00:46:16;3.40;;;0.98;;
9186;SDS011;7273;48.902;9.410;2023-02-15T00:48:41;3.92;;;1.38;;
9186;SDS011;7273;48.902;9.410;2023-02-15T00:51:07;1.15;;;1.05;;
9186;SDS011;7273;48.902;9.410;2023-02-15T00:53:32;2.83;;;1.98;;
9186;SDS011;7273;48.902;9.410;2023-02-15T00:55:58;3.20;;;2.03;;
9186;SDS011;7273;48.902;9.410;2023-02-15T00:58:23;4.03;;;1.13;;
9186;SDS011;7273;48.902;9.410;2023-02-15T01:00:50;1.00;;;0.95;;
9186;SDS011;7273;48.902;9.410;2023-02-15T01:03:16;1.13;;;0.93;;
9186;SDS011;7273;48.902;9.410;2023-02-15T01:05:43;0.20;;;0.15;;
9186;SDS011;7273;48.902;9.410;2023-02-15T01:08:08;2.10;;;0.82;;
9186;SDS011;7273;48.902;9.410;2023-02-15T01:10:34;2.40;;;1.02;;
9186;SDS011;7273;48.902;9.410;2023-02-15T01:13:00;0.98;;;0.90;;
9186;SDS011;7273;48.902;9.410;2023-02-15T01:15:26;1.30;;;1.15;;
9186;SDS011;7273;48.902;9.410;2023-02-15T01:17:51;2.45;;;2.25;;
9186;SDS011;7273;48.902;9.410;2023-02-15T01:20:27;0.63;;;0.60;;
9186;SDS011;7273;48.902;9.410;2023-02-15T01:22:53;4.43;;;2.30;;
9186;SDS011;7273;48.902;9.410;2023-02-15T01:25:21;0.60;;;0.60;;
9186;SDS011;7273;48.902;9.410;2023-02-15T01:27:48;1.17;;;1.05;;
9186;SDS011;7273;48.902;9.410;2023-02-15T01:30:14;2.55;;;0.93;;
9186;SDS011;7273;48.902;9.410;2023-02-15T01:32:40;4.47;;;1.52;;
9186;SDS011;7273;48.902;9.410;2023-02-15T01:35:06;0.30;;;0.30;;
9186;SDS011;7273;48.902;9.410;2023-02-15T01:37:33;3.38;;;1.35;;
9186;SDS011;7273;48.902;9.410;2023-02-15T01:39:59;1.20;;;0.60;;
9186;SDS011;7273;48.902;9.410;2023-02-15T01:42:26;0.55;;;0.50;;
9186;SDS011;7273;48.902;9.410;2023-02-15T01:44:54;1.67;;;1.17;;
9186;SDS011;7273;48.902;9.410;2023-02-15T01:50:15;2.17;;;0.80;;
9186;SDS011;7273;48.902;9.410;2023-02-15T01:55:15;0.65;;;0.63;;
9186;SDS011;7273;48.902;9.410;2023-02-15T01:57:41;1.15;;;0.95;;
9186;SDS011;7273;48.902;9.410;2023-02-15T02:00:10;2.08;;;0.98;;
9186;SDS011;7273;48.902;9.410;2023-02-15T02:02:36;3.60;;;1.75;;
9186;SDS011;7273;48.902;9.410;2023-02-15T02:05:02;1.02;;;0.70;;
9186;SDS011;7273;48.902;9.410;2023-02-15T02:07:34;0.75;;;0.65;;
9186;SDS011;7273;48.902;9.410;2023-02-15T02:10:06;2.05;;;1.13;;
9186;SDS011;7273;48.902;9.410;2023-02-15T02:12:32;1.52;;;1.00;;
9186;SDS011;7273;48.902;9.410;2023-02-15T02:14:59;1.48;;;1.20;;
9186;SDS011;7273;48.902;9.410;2023-02-15T02:20:35;1.92;;;1.20;;
9186;SDS011;7273;48.902;9.410;2023-02-15T02:34:43;3.17;;;1.55;;
9186;SDS011;7273;48.902;9.410;2023-02-15T02:40:20;2.50;;;0.43;;
9186;SDS011;7273;48.902;9.410;2023-02-15T02:45:09;1.30;;;0.85;;
9186;SDS011;7273;48.902;9.410;2023-02-15T02:47:44;4.03;;;1.73;;
9186;SDS011;7273;48.902;9.410;2023-02-15T02:50:20;0.20;;;0.20;;
9186;SDS011;7273;48.902;9.410;2023-02-15T02:52:51;4.25;;;1.85;;
9186;SDS011;7273;48.902;9.410;2023-02-15T02:55:23;0.98;;;0.68;;
9186;SDS011;7273;48.902;9.410;2023-02-15T03:00:37;1.38;;;1.27;;
9186;SDS011;7273;48.902;9.410;2023-02-15T03:03:14;5.57;;;1.98;;
9186;SDS011;7273;48.902;9.410;2023-02-15T03:05:48;2.08;;;1.02;;
9186;SDS011;7273;48.902;9.410;2023-02-15T03:08:18;1.65;;;0.85;;
9186;SDS011;7273;48.902;9.410;2023-02-15T03:10:48;2.10;;;0.57;;
9186;SDS011;7273;48.902;9.410;2023-02-15T03:13:18;2.42;;;1.63;;
9186;SDS011;7273;48.902;9.410;2023-02-15T03:15:44;3.88;;;0.98;;
9186;SDS011;7273;48.902;9.410;2023-02-15T03:18:31;0.65;;;0.35;;
9186;SDS011;7273;48.902;9.410;2023-02-15T03:21:04;1.35;;;0.75;;
9186;SDS011;7273;48.902;9.410;2023-02-15T03:23:32;1.75;;;1.65;;
9186;SDS011;7273;48.902;9.410;2023-02-15T03:26:04;2.88;;;1.60;;
9186;SDS011;7273;48.902;9.410;2023-02-15T03:28:36;0.88;;;0.65;;
9186;SDS011;7273;48.902;9.410;2023-02-15T03:31:07;1.50;;;1.30;;
9186;SDS011;7273;48.902;9.410;2023-02-15T03:33:35;2.33;;;1.35;;
9186;SDS011;7273;48.902;9.410;2023-02-15T03:36:09;2.75;;;1.25;;
9186;SDS011;7273;48.902;9.410;2023-02-15T03:42:11;0.30;;;0.30;;
9186;SDS011;7273;48.902;9.410;2023-02-15T03:44:51;1.60;;;0.85;;
9186;SDS011;7273;48.902;9.410;2023-02-15T03:47:27;0.95;;;0.40;;
9186;SDS011;7273;48.902;9.410;2023-02-15T03:50:13;0.82;;;0.77;;
9186;SDS011;7273;48.902;9.410;2023-02-15T03:53:03;3.00;;;1.40;;
9186;SDS011;7273;48.902;9.410;2023-02-15T03:55:33;4.78;;;1.13;;
9186;SDS011;7273;48.902;9.410;2023-02-15T03:57:59;0.40;;;0.22;;
9186;SDS011;7273;48.902;9.410;2023-02-15T04:00:45;0.25;;;0.25;;
9186;SDS011;7273;48.902;9.410;2023-02-15T04:03:41;0.25;;;0.25;;
9186;SDS011;7273;48.902;9.410;2023-02-15T04:06:10;2.47;;;1.02;;
9186;SDS011;7273;48.902;9.410;2023-02-15T04:08:36;2.33;;;1.15;;
9186;SDS011;7273;48.902;9.410;2023-02-15T04:11:20;2.05;;;1.02;;
9186;SDS011;7273;48.902;9.410;2023-02-15T04:13:45;4.38;;;1.90;;
9186;SDS011;7273;48.902;9.410;2023-02-15T04:16:11;4.38;;;2.30;;
9186;SDS011;7273;48.902;9.410;2023-02-15T04:18:37;1.05;;;0.75;;
9186;SDS011;7273;48.902;9.410;2023-02-15T04:21:23;1.20;;;1.10;;
9186;SDS011;7273;48.902;9.410;2023-02-15T04:24:09;5.00;;;0.98;;
9186;SDS011;7273;48.902;9.410;2023-02-15T04:26:53;0.73;;;0.60;;
9186;SDS011;7273;48.902;9.410;2023-02-15T04:29:22;0.50;;;0.45;;
9186;SDS011;7273;48.902;9.410;2023-02-15T04:31:49;0.90;;;0.82;;
9186;SDS011;7273;48.902;9.410;2023-02-15T04:34:15;0.65;;;0.65;;
9186;SDS011;7273;48.902;9.410;2023-02-15T04:36:41;1.77;;;1.60;;
9186;SDS011;7273;48.902;9.410;2023-02-15T04:39:07;0.80;;;0.80;;
9186;SDS011;7273;48.902;9.410;2023-02-15T04:41:33;7.65;;;1.63;;
9186;SDS011;7273;48.902;9.410;2023-02-15T04:43:59;2.67;;;1.80;;
9186;SDS011;7273;48.902;9.410;2023-02-15T04:46:25;0.38;;;0.30;;
9186;SDS011;7273;48.902;9.410;2023-02-15T04:48:51;0.32;;;0.32;;
9186;SDS011;7273;48.902;9.410;2023-02-15T04:51:17;2.00;;;1.35;;
9186;SDS011;7273;48.902;9.410;2023-02-15T04:53:43;1.02;;;0.80;;
9186;SDS011;7273;48.902;9.410;2023-02-15T04:56:08;0.40;;;0.35;;
9186;SDS011;7273;48.902;9.410;2023-02-15T04:58:33;0.73;;;0.63;;
9186;SDS011;7273;48.902;9.410;2023-02-15T05:01:00;0.85;;;0.75;;
9186;SDS011;7273;48.902;9.410;2023-02-15T05:03:26;5.72;;;1.27;;
9186;SDS011;7273;48.902;9.410;2023-02-15T05:05:51;2.05;;;1.38;;
9186;SDS011;7273;48.902;9.410;2023-02-15T05:08:16;0.27;;;0.27;;
9186;SDS011;7273;48.902;9.410;2023-02-15T05:10:42;1.08;;;0.80;;
9186;SDS011;7273;48.902;9.410;2023-02-15T05:13:07;1.85;;;0.93;;
9186;SDS011;7273;48.902;9.410;2023-02-15T05:15:33;7.07;;;1.98;;
9186;SDS011;7273;48.902;9.410;2023-02-15T05:17:58;2.95;;;1.65;;
9186;SDS011;7273;48.902;9.410;2023-02-15T05:20:24;3.15;;;1.92;;
9186;SDS011;7273;48.902;9.410;2023-02-15T05:22:52;0.57;;;0.47;;
9186;SDS011;7273;48.902;9.410;2023-02-15T05:28:02;1.65;;;1.13;;
9186;SDS011;7273;48.902;9.410;2023-02-15T05:30:49;0.82;;;0.55;;
9186;SDS011;7273;48.902;9.410;2023-02-15T05:33:16;4.90;;;1.65;;
9186;SDS011;7273;48.902;9.410;2023-02-15T05:35:42;1.08;;;0.73;;
9186;SDS011;7273;48.902;9.410;2023-02-15T05:38:08;2.33;;;1.40;;
9186;SDS011;7273;48.902;9.410;2023-02-15T05:40:34;2.53;;;1.85;;
9186;SDS011;7273;48.902;9.410;2023-02-15T05:42:59;0.68;;;0.43;;
9186;SDS011;7273;48.902;9.410;2023-02-15T05:45:25;0.93;;;0.50;;
9186;SDS011;7273;48.902;9.410;2023-02-15T05:47:50;1.42;;;1.25;;
9186;SDS011;7273;48.902;9.410;2023-02-15T05:50:16;2.60;;;1.92;;
9186;SDS011;7273;48.902;9.410;2023-02-15T05:52:41;1.45;;;1.15;;
9186;SDS011;7273;48.902;9.410;2023-02-15T05:55:07;3.60;;;2.25;;
9186;SDS011;7273;48.902;9.410;2023-02-15T05:57:34;1.23;;;0.90;;
9186;SDS011;7273;48.902;9.410;2023-02-15T05:59:59;0.80;;;0.60;;
9186;SDS011;7273;48.902;9.410;2023-02-15T06:02:25;1.40;;;0.90;;
9186;SDS011;7273;48.902;9.410;2023-02-15T06:04:50;1.80;;;0.88;;
9186;SDS011;7273;48.902;9.410;2023-02-15T06:07:16;2.63;;;1.30;;
9186;SDS011;7273;48.902;9.410;2023-02-15T06:09:41;2.33;;;1.42;;
9186;SDS011;7273;48.902;9.410;2023-02-15T06:12:06;1.20;;;0.70;;
9186;SDS011;7273;48.902;9.410;2023-02-15T06:14:32;6.07;;;1.25;;
9186;SDS011;7273;48.902;9.410;2023-02-15T06:16:57;0.77;;;0.68;;
9186;SDS011;7273;48.902;9.410;2023-02-15T06:19:23;0.52;;;0.43;;
9186;SDS011;7273;48.902;9.410;2023-02-15T06:21:48;0.85;;;0.75;;
9186;SDS011;7273;48.902;9.410;2023-02-15T06:24:14;1.90;;;1.05;;
9186;SDS011;7273;48.902;9.410;2023-02-15T06:26:40;1.50;;;1.00;;
9186;SDS011;7273;48.902;9.410;2023-02-15T06:29:06;2.72;;;1.17;;
9186;SDS011;7273;48.902;9.410;2023-02-15T06:31:31;1.48;;;0.73;;
9186;SDS011;7273;48.902;9.410;2023-02-15T06:33:57;0.50;;;0.50;;
9186;SDS011;7273;48.902;9.410;2023-02-15T06:36:28;0.80;;;0.63;;
9186;SDS011;7273;48.902;9.410;2023-02-15T06:38:54;1.88;;;1.58;;
9186;SDS011;7273;48.902;9.410;2023-02-15T06:41:20;0.40;;;0.28;;
9186;SDS011;7273;48.902;9.410;2023-02-15T06:43:45;1.67;;;1.05;;
9186;SDS011;7273;48.902;9.410;2023-02-15T06:46:11;1.65;;;1.52;;
9186;SDS011;7273;48.902;9.410;2023-02-15T06:48:36;1.70;;;0.98;;
9186;SDS011;7273;48.902;9.410;2023-02-15T06:51:02;4.13;;;2.22;;
9186;SDS011;7273;48.902;9.410;2023-02-15T06:53:27;2.70;;;2.08;;
9186;SDS011;7273;48.902;9.410;2023-02-15T06:55:59;0.40;;;0.38;;
9186;SDS011;7273;48.902;9.410;2023-02-15T06:58:31;2.22;;;1.00;;
9186;SDS011;7273;48.902;9.410;2023-02-15T07:01:04;1.90;;;1.00;;
9186;SDS011;7273;48.902;9.410;2023-02-15T07:03:30;0.80;;;0.60;;
9186;SDS011;7273;48.902;9.410;2023-02-15T07:05:57;7.28;;;3.17;;
9186;SDS011;7273;48.902;9.410;2023-02-15T07:08:24;2.75;;;2.33;;
9186;SDS011;7273;48.902;9.410;2023-02-15T07:10:51;1.92;;;1.45;;
9186;SDS011;7273;48.902;9.410;2023-02-15T07:13:17;10.48;;;7.00;;
9186;SDS011;7273;48.902;9.410;2023-02-15T07:15:43;6.18;;;2.60;;
9186;SDS011;7273;48.902;9.410;2023-02-15T07:18:09;6.25;;;3.55;;
9186;SDS011;7273;48.902;9.410;2023-02-15T07:20:38;6.10;;;2.60;;
9186;SDS011;7273;48.902;9.410;2023-02-15T07:23:07;4.60;;;2.08;;
9186;SDS011;7273;48.902;9.410;2023-02-15T07:25:33;2.80;;;1.67;;
9186;SDS011;7273;48.902;9.410;2023-02-15T07:28:00;13.93;;;2.47;;
9186;SDS011;7273;48.902;9.410;2023-02-15T07:30:27;6.15;;;3.55;;
9186;SDS011;7273;48.902;9.410;2023-02-15T07:32:56;1.95;;;1.75;;
9186;SDS011;7273;48.902;9.410;2023-02-15T07:35:50;3.80;;;1.73;;
9186;SDS011;7273;48.902;9.410;2023-02-15T07:38:18;3.08;;;2.45;;
9186;SDS011;7273;48.902;9.410;2023-02-15T07:40:44;1.80;;;1.23;;
9186;SDS011;7273;48.902;9.410;2023-02-15T07:43:10;4.22;;;1.58;;
9186;SDS011;7273;48.902;9.410;2023-02-15T07:45:35;1.17;;;0.88;;
9186;SDS011;7273;48.902;9.410;2023-02-15T07:48:01;2.10;;;0.75;;
9186;SDS011;7273;48.902;9.410;2023-02-15T07:50:27;7.88;;;3.13;;
9186;SDS011;7273;48.902;9.410;2023-02-15T07:52:53;1.48;;;0.80;;
9186;SDS011;7273;48.902;9.410;2023-02-15T07:55:18;2.75;;;1.90;;
9186;SDS011;7273;48.902;9.410;2023-02-15T07:57:44;1.75;;;1.38;;
9186;SDS011;7273;48.902;9.410;2023-02-15T08:00:14;2.90;;;1.17;;
9186;SDS011;7273;48.902;9.410;2023-02-15T08:02:42;1.33;;;0.93;;
9186;SDS011;7273;48.902;9.410;2023-02-15T08:05:12;1.02;;;0.80;;
9186;SDS011;7273;48.902;9.410;2023-02-15T08:07:37;1.35;;;0.80;;
9186;SDS011;7273;48.902;9.410;2023-02-15T08:10:03;7.43;;;2.72;;
9186;SDS011;7273;48.902;9.410;2023-02-15T08:12:28;7.32;;;2.63;;
9186;SDS011;7273;48.902;9.410;2023-02-15T08:14:54;1.58;;;0.93;;
9186;SDS011;7273;48.902;9.410;2023-02-15T08:17:19;0.60;;;0.57;;
9186;SDS011;7273;48.902;9.410;2023-02-15T08:19:45;0.43;;;0.38;;
9186;SDS011;7273;48.902;9.410;2023-02-15T08:22:12;4.53;;;1.65;;
9186;SDS011;7273;48.902;9.410;2023-02-15T08:24:39;2.83;;;2.50;;
9186;SDS011;7273;48.902;9.410;2023-02-15T08:27:06;1.77;;;1.35;;
9186;SDS011;7273;48.902;9.410;2023-02-15T08:29:34;2.78;;;1.50;;
9186;SDS011;7273;48.902;9.410;2023-02-15T08:32:01;2.33;;;1.25;;
9186;SDS011;7273;48.902;9.410;2023-02-15T08:34:36;4.22;;;1.98;;
9186;SDS011;7273;48.902;9.410;2023-02-15T08:37:04;3.10;;;0.82;;
9186;SDS011;7273;48.902;9.410;2023-02-15T08:39:30;0.93;;;0.68;;
9186;SDS011;7273;48.902;9.410;2023-02-15T08:41:56;2.47;;;2.03;;
9186;SDS011;7273;48.902;9.410;2023-02-15T08:44:21;1.10;;;1.02;;
9186;SDS011;7273;48.902;9.410;2023-02-15T08:46:47;2.53;;;1.30;;
9186;SDS011;7273;48.902;9.410;2023-02-15T08:49:18;1.75;;;1.45;;
9186;SDS011;7273;48.902;9.410;2023-02-15T08:51:45;2.63;;;1.63;;
9186;SDS011;7273;48.902;9.410;2023-02-15T08:54:15;2.25;;;1.70;;
9186;SDS011;7273;48.902;9.410;2023-02-15T08:56:43;0.75;;;0.75;;
9186;SDS011;7273;48.902;9.410;2023-02-15T08:59:15;1.88;;;0.68;;
9186;SDS011;7273;48.902;9.410;2023-02-15T09:01:43;12.80;;;2.83;;
9186;SDS011;7273;48.902;9.410;2023-02-15T09:04:09;3.38;;;1.25;;
9186;SDS011;7273;48.902;9.410;2023-02-15T09:06:36;9.23;;;1.98;;
9186;SDS011;7273;48.902;9.410;2023-02-15T09:09:02;6.68;;;1.27;;
9186;SDS011;7273;48.902;9.410;2023-02-15T09:11:29;4.50;;;1.10;;
9186;SDS011;7273;48.902;9.410;2023-02-15T09:16:21;0.13;;;0.13;;
9186;SDS011;7273;48.902;9.410;2023-02-15T09:18:48;7.28;;;1.35;;
9186;SDS011;7273;48.902;9.410;2023-02-15T09:21:21;4.38;;;1.95;;
9186;SDS011;7273;48.902;9.410;2023-02-15T09:23:48;0.70;;;0.55;;
9186;SDS011;7273;48.902;9.410;2023-02-15T09:26:16;3.33;;;2.05;;
9186;SDS011;7273;48.902;9.410;2023-02-15T09:28:46;2.45;;;1.75;;
9186;SDS011;7273;48.902;9.410;2023-02-15T09:31:14;4.72;;;1.73;;
9186;SDS011;7273;48.902;9.410;2023-02-15T09:33:42;5.18;;;2.60;;
9186;SDS011;7273;48.902;9.410;2023-02-15T09:36:25;5.00;;;2.70;;
9186;SDS011;7273;48.902;9.410;2023-02-15T09:38:59;4.00;;;1.98;;
9186;SDS011;7273;48.902;9.410;2023-02-15T09:50:24;10.68;;;3.30;;
9186;SDS011;7273;48.902;9.410;2023-02-15T10:01:09;5.90;;;3.13;;
9186;SDS011;7273;48.902;9.410;2023-02-15T10:12:06;7.22;;;3.55;;
9186;SDS011;7273;48.902;9.410;2023-02-15T10:25:51;7.07;;;3.50;;
9186;SDS011;7273;48.902;9.410;2023-02-15T10:31:26;3.70;;;2.63;;
9186;SDS011;7273;48.902;9.410;2023-02-15T10:36:58;6.70;;;2.03;;
9186;SDS011;7273;48.902;9.410;2023-02-15T10:39:51;1.52;;;1.38;;
9186;SDS011;7273;48.902;9.410;2023-02-15T10:42:34;3.28;;;2.15;;
9186;SDS011;7273;48.902;9.410;2023-02-15T11:01:20;2.90;;;2.20;;
9186;SDS011;7273;48.902;9.410;2023-02-15T11:07:14;7.28;;;2.35;;
9186;SDS011;7273;48.902;9.410;2023-02-15T11:09:46;2.03;;;1.60;;
9186;SDS011;7273;48.902;9.410;2023-02-15T11:12:16;2.70;;;1.98;;
9186;SDS011;7273;48.902;9.410;2023-02-15T11:14:46;7.10;;;1.58;;
9186;SDS011;7273;48.902;9.410;2023-02-15T11:17:15;4.30;;;2.10;;
9186;SDS011;7273;48.902;9.410;2023-02-15T11:19:55;7.32;;;3.83;;
9186;SDS011;7273;48.902;9.410;2023-02-15T11:22:31;2.03;;;1.73;;
9186;SDS011;7273;48.902;9.410;2023-02-15T11:24:58;8.77;;;2.63;;
9186;SDS011;7273;48.902;9.410;2023-02-15T11:27:32;6.43;;;3.22;;
9186;SDS011;7273;48.902;9.410;2023-02-15T11:30:04;5.28;;;3.03;;
9186;SDS011;7273;48.902;9.410;2023-02-15T11:32:39;6.13;;;1.58;;
9186;SDS011;7273;48.902;9.410;2023-02-15T11:40:17;5.47;;;2.22;;
9186;SDS011;7273;48.902;9.410;2023-02-15T11:42:44;6.75;;;3.85;;
9186;SDS011;7273;48.902;9.410;2023-02-15T11:47:52;9.38;;;3.38;;
9186;SDS011;7273;48.902;9.410;2023-02-15T11:50:25;7.30;;;2.55;;
9186;SDS011;7273;48.902;9.410;2023-02-15T11:52:54;6.13;;;2.88;;
9186;SDS011;7273;48.902;9.410;2023-02-15T11:55:23;7.07;;;2.90;;
9186;SDS011;7273;48.902;9.410;2023-02-15T12:00:31;5.53;;;3.38;;
9186;SDS011;7273;48.902;9.410;2023-02-15T12:05:47;3.72;;;2.13;;
9186;SDS011;7273;48.902;9.410;2023-02-15T12:08:19;11.43;;;3.15;;
9186;SDS011;7273;48.902;9.410;2023-02-15T12:10:51;5.45;;;2.65;;
9186;SDS011;7273;48.902;9.410;2023-02-15T12:13:19;8.93;;;3.83;;
9186;SDS011;7273;48.902;9.410;2023-02-15T12:15:46;8.23;;;2.50;;
9186;SDS011;7273;48.902;9.410;2023-02-15T12:20:58;4.93;;;2.63;;
9186;SDS011;7273;48.902;9.410;2023-02-15T12:23:27;7.65;;;3.38;;
9186;SDS011;7273;48.902;9.410;2023-02-15T12:25:54;6.70;;;2.78;;
9186;SDS011;7273;48.902;9.410;2023-02-15T12:30:59;7.95;;;3.40;;
9186;SDS011;7273;48.902;9.410;2023-02-15T12:36:15;4.43;;;1.90;;
9186;SDS011;7273;48.902;9.410;2023-02-15T12:38:42;8.50;;;3.67;;
9186;SDS011;7273;48.902;9.410;2023-02-15T12:41:24;2.38;;;1.63;;
9186;SDS011;7273;48.902;9.410;2023-02-15T12:44:03;5.45;;;2.85;;
9186;SDS011;7273;48.902;9.410;2023-02-15T12:46:29;6.00;;;2.60;;
9186;SDS011;7273;48.902;9.410;2023-02-15T12:51:54;5.93;;;2.70;;
9186;SDS011;7273;48.902;9.410;2023-02-15T12:54:32;5.38;;;2.70;;
9186;SDS011;7273;48.902;9.410;2023-02-15T12:56:59;4.75;;;2.05;;
9186;SDS011;7273;48.902;9.410;2023-02-15T12:59:49;6.75;;;3.47;;
9186;SDS011;7273;48.902;9.410;2023-02-15T13:02:20;5.97;;;2.95;;
9186;SDS011;7273;48.902;9.410;2023-02-15T13:04:51;4.72;;;2.38;;
9186;SDS011;7273;48.902;9.410;2023-02-15T13:07:18;5.28;;;2.40;;
9186;SDS011;7273;48.902;9.410;2023-02-15T13:09:44;4.00;;;1.75;;
9186;SDS011;7273;48.902;9.410;2023-02-15T13:14:53;3.60;;;2.33;;
9186;SDS011;7273;48.902;9.410;2023-02-15T13:17:26;5.03;;;2.90;;
9186;SDS011;7273;48.902;9.410;2023-02-15T13:20:02;2.75;;;1.90;;
9186;SDS011;7273;48.902;9.410;2023-02-15T13:22:37;5.68;;;2.80;;
9186;SDS011;7273;48.902;9.410;2023-02-15T13:25:26;3.47;;;2.38;;
9186;SDS011;7273;48.902;9.410;2023-02-15T13:27:57;4.53;;;2.33;;
9186;SDS011;7273;48.902;9.410;2023-02-15T13:30:28;5.18;;;1.83;;
9186;SDS011;7273;48.902;9.410;2023-02-15T13:33:00;6.88;;;1.95;;
9186;SDS011;7273;48.902;9.410;2023-02-15T13:41:04;4.15;;;1.90;;
9186;SDS011;7273;48.902;9.410;2023-02-15T13:46:36;7.30;;;3.25;;
9186;SDS011;7273;48.902;9.410;2023-02-15T13:52:04;2.80;;;1.80;;
9186;SDS011;7273;48.902;9.410;2023-02-15T14:00:24;7.10;;;2.10;;
9186;SDS011;7273;48.902;9.410;2023-02-15T14:05:40;3.83;;;1.27;;
9186;SDS011;7273;48.902;9.410;2023-02-15T14:17:23;2.47;;;1.45;;
9186;SDS011;7273;48.902;9.410;2023-02-15T14:20:03;5.93;;;2.63;;
9186;SDS011;7273;48.902;9.410;2023-02-15T14:22:41;2.33;;;1.20;;
9186;SDS011;7273;48.902;9.410;2023-02-15T14:25:17;7.47;;;2.00;;
9186;SDS011;7273;48.902;9.410;2023-02-15T14:32:49;7.03;;;2.28;;
9186;SDS011;7273;48.902;9.410;2023-02-15T14:35:22;7.00;;;2.65;;
9186;SDS011;7273;48.902;9.410;2023-02-15T14:37:53;4.50;;;2.53;;
9186;SDS011;7273;48.902;9.410;2023-02-15T14:48:49;4.28;;;1.83;;
9186;SDS011;7273;48.902;9.410;2023-02-15T14:54:08;7.80;;;2.95;;
9186;SDS011;7273;48.902;9.410;2023-02-15T14:56:34;4.85;;;2.35;;
9186;SDS011;7273;48.902;9.410;2023-02-15T14:59:11;6.75;;;2.90;;
9186;SDS011;7273;48.902;9.410;2023-02-15T15:01:38;6.35;;;2.83;;
9186;SDS011;7273;48.902;9.410;2023-02-15T15:04:12;8.75;;;3.05;;
9186;SDS011;7273;48.902;9.410;2023-02-15T15:06:55;101.43;;;22.20;;
9186;SDS011;7273;48.902;9.410;2023-02-15T15:09:25;4.28;;;2.22;;
9186;SDS011;7273;48.902;9.410;2023-02-15T15:11:53;8.45;;;2.60;;
9186;SDS011;7273;48.902;9.410;2023-02-15T15:14:38;8.57;;;2.92;;
9186;SDS011;7273;48.902;9.410;2023-02-15T15:17:04;2.42;;;1.15;;
9186;SDS011;7273;48.902;9.410;2023-02-15T15:22:24;6.82;;;2.67;;
9186;SDS011;7273;48.902;9.410;2023-02-15T15:24:52;4.55;;;2.30;;
9186;SDS011;7273;48.902;9.410;2023-02-15T15:27:38;5.10;;;2.75;;
9186;SDS011;7273;48.902;9.410;2023-02-15T15:32:41;3.92;;;2.05;;
9186;SDS011;7273;48.902;9.410;2023-02-15T15:41:08;7.15;;;2.00;;
9186;SDS011;7273;48.902;9.410;2023-02-15T15:46:42;195.85;;;61.38;;
9186;SDS011;7273;48.902;9.410;2023-02-15T15:49:22;9.10;;;7.15;;
9186;SDS011;7273;48.902;9.410;2023-02-15T15:51:53;37.05;;;17.42;;
9186;SDS011;7273;48.902;9.410;2023-02-15T15:54:19;6.57;;;2.67;;
9186;SDS011;7273;48.902;9.410;2023-02-15T15:56:48;34.88;;;19.63;;
9186;SDS011;7273;48.902;9.410;2023-02-15T15:59:22;119.15;;;57.28;;
9186;SDS011;7273;48.902;9.410;2023-02-15T16:01:50;126.45;;;59.72;;
9186;SDS011;7273;48.902;9.410;2023-02-15T16:04:27;64.97;;;36.08;;
9186;SDS011;7273;48.902;9.410;2023-02-15T16:06:55;63.85;;;39.45;;
9186;SDS011;7273;48.902;9.410;2023-02-15T16:09:25;96.65;;;51.72;;
9186;SDS011;7273;48.902;9.410;2023-02-15T16:11:53;76.38;;;44.28;;
9186;SDS011;7273;48.902;9.410;2023-02-15T16:14:26;109.70;;;55.58;;
9186;SDS011;7273;48.902;9.410;2023-02-15T16:16:56;102.93;;;53.88;;
9186;SDS011;7273;48.902;9.410;2023-02-15T16:19:28;126.22;;;60.40;;
9186;SDS011;7273;48.902;9.410;2023-02-15T16:22:00;121.93;;;58.28;;
9186;SDS011;7273;48.902;9.410;2023-02-15T16:29:28;356.23;;;117.45;;
9186;SDS011;7273;48.902;9.410;2023-02-15T16:32:03;4.88;;;3.08;;
9186;SDS011;7273;48.902;9.410;2023-02-15T16:37:16;6.18;;;2.72;;
9186;SDS011;7273;48.902;9.410;2023-02-15T16:39:43;7.70;;;3.72;;
9186;SDS011;7273;48.902;9.410;2023-02-15T16:42:11;11.55;;;2.38;;
9186;SDS011;7273;48.902;9.410;2023-02-15T16:44:39;3.35;;;1.95;;
9186;SDS011;7273;48.902;9.410;2023-02-15T16:47:07;4.20;;;1.95;;
9186;SDS011;7273;48.902;9.410;2023-02-15T16:49:43;4.75;;;2.42;;
9186;SDS011;7273;48.902;9.410;2023-02-15T16:52:13;2.75;;;1.55;;
9186;SDS011;7273;48.902;9.410;2023-02-15T16:54:44;4.35;;;2.60;;
9186;SDS011;7273;48.902;9.410;2023-02-15T16:57:16;4.03;;;2.33;;
9186;SDS011;7273;48.902;9.410;2023-02-15T16:59:47;3.83;;;1.85;;
9186;SDS011;7273;48.902;9.410;2023-02-15T17:02:16;4.43;;;3.20;;
9186;SDS011;7273;48.902;9.410;2023-02-15T17:04:42;2.22;;;1.42;;
9186;SDS011;7273;48.902;9.410;2023-02-15T17:07:25;2.85;;;2.25;;
9186;SDS011;7273;48.902;9.410;2023-02-15T17:09:52;5.05;;;2.28;;
9186;SDS011;7273;48.902;9.410;2023-02-15T17:13:01;10.95;;;2.55;;
9186;SDS011;7273;48.902;9.410;2023-02-15T17:15:26;3.53;;;2.00;;
9186;SDS011;7273;48.902;9.410;2023-02-15T17:20:22;7.05;;;3.70;;
9186;SDS011;7273;48.902;9.410;2023-02-15T17:22:49;5.13;;;3.80;;
9186;SDS011;7273;48.902;9.410;2023-02-15T17:25:19;4.57;;;3.25;;
9186;SDS011;7273;48.902;9.410;2023-02-15T17:27:51;8.63;;;3.42;;
9186;SDS011;7273;48.902;9.410;2023-02-15T17:30:27;6.93;;;3.00;;
9186;SDS011;7273;48.902;9.410;2023-02-15T17:32:58;5.68;;;3.03;;
9186;SDS011;7273;48.902;9.410;2023-02-15T17:35:31;4.05;;;2.20;;
9186;SDS011;7273;48.902;9.410;2023-02-15T17:38:01;10.50;;;3.67;;
9186;SDS011;7273;48.902;9.410;2023-02-15T17:43:10;3.40;;;1.97;;
9186;SDS011;7273;48.902;9.410;2023-02-15T17:45:44;3.83;;;2.03;;
9186;SDS011;7273;48.902;9.410;2023-02-15T17:48:18;3.15;;;2.35;;
9186;SDS011;7273;48.902;9.410;2023-02-15T17:50:46;2.28;;;1.55;;
9186;SDS011;7273;48.902;9.410;2023-02-15T17:53:12;6.13;;;2.30;;
9186;SDS011;7273;48.902;9.410;2023-02-15T17:55:41;2.15;;;1.50;;
9186;SDS011;7273;48.902;9.410;2023-02-15T18:00:38;4.35;;;2.75;;
9186;SDS011;7273;48.902;9.410;2023-02-15T18:03:28;4.20;;;3.20;;
9186;SDS011;7273;48.902;9.410;2023-02-15T18:06:19;3.95;;;1.60;;
9186;SDS011;7273;48.902;9.410;2023-02-15T18:09:03;3.88;;;2.90;;
9186;SDS011;7273;48.902;9.410;2023-02-15T18:11:47;4.22;;;2.05;;
9186;SDS011;7273;48.902;9.410;2023-02-15T18:14:14;10.10;;;2.92;;
9186;SDS011;7273;48.902;9.410;2023-02-15T18:16:41;2.80;;;2.17;;
9186;SDS011;7273;48.902;9.410;2023-02-15T18:19:12;2.45;;;1.52;;
9186;SDS011;7273;48.902;9.410;2023-02-15T18:21:40;3.30;;;1.63;;
9186;SDS011;7273;48.902;9.410;2023-02-15T18:24:09;3.08;;;2.30;;
9186;SDS011;7273;48.902;9.410;2023-02-15T18:26:39;1.52;;;1.10;;
9186;SDS011;7273;48.902;9.410;2023-02-15T18:29:05;5.25;;;3.00;;
9186;SDS011;7273;48.902;9.410;2023-02-15T18:31:30;4.35;;;2.15;;
9186;SDS011;7273;48.902;9.410;2023-02-15T18:33:57;7.15;;;2.70;;
9186;SDS011;7273;48.902;9.410;2023-02-15T18:36:28;7.13;;;1.20;;
9186;SDS011;7273;48.902;9.410;2023-02-15T18:38:57;1.77;;;1.30;;
9186;SDS011;7273;48.902;9.410;2023-02-15T18:41:23;3.03;;;1.85;;
9186;SDS011;7273;48.902;9.410;2023-02-15T18:43:49;2.35;;;1.45;;
9186;SDS011;7273;48.902;9.410;2023-02-15T18:46:15;3.72;;;1.27;;
9186;SDS011;7273;48.902;9.410;2023-02-15T18:48:41;3.63;;;2.63;;
9186;SDS011;7273;48.902;9.410;2023-02-15T18:51:27;5.25;;;2.63;;
9186;SDS011;7273;48.902;9.410;2023-02-15T18:53:52;1.98;;;1.45;;